createdAt,value
2023-02-22T00:00:48.378Z,81.66
2023-02-22T00:03:18.380Z,81.84
2023-02-22T00:05:47.440Z,81.42
2023-02-22T00:08:17.898Z,81.76
2023-02-22T00:10:44.980Z,81.45
2023-02-22T00:13:14.391Z,81.93
2023-02-22T00:15:41.694Z,81.98
2023-02-22T00:18:10.454Z,82.24
2023-02-22T00:21:00.489Z,81.89
2023-02-22T00:23:50.132Z,81.95
2023-02-22T00:26:35.715Z,81.72
2023-02-22T00:29:25.265Z,82.05
2023-02-22T00:32:10.632Z,82.18
2023-02-22T00:34:58.241Z,81.98
2023-02-22T00:37:43.595Z,82.06
2023-02-22T00:40:33.730Z,81.98
2023-02-22T00:43:19.359Z,81.81
2023-02-22T00:46:05.633Z,81.92
2023-02-22T00:48:51.339Z,82.29
2023-02-22T00:51:36.863Z,82.23
2023-02-22T00:54:03.960Z,81.89
2023-02-22T00:56:30.571Z,82.45
2023-02-22T00:58:57.330Z,82.03
2023-02-22T01:01:24.403Z,82.36
2023-02-22T01:03:51.211Z,81.98
2023-02-22T01:06:18.200Z,82.16
2023-02-22T01:08:46.651Z,81.89
2023-02-22T01:11:15.690Z,81.87
2023-02-22T01:13:45.270Z,82.09
2023-02-22T01:16:12.423Z,82.06
2023-02-22T01:18:39.085Z,82.09
2023-02-22T01:21:06.770Z,81.91
2023-02-22T01:23:33.600Z,81.91
2023-02-22T01:26:00.280Z,82.00
2023-02-22T01:28:27.159Z,81.82
2023-02-22T01:30:56.552Z,82.12
2023-02-22T01:33:24.047Z,81.78
2023-02-22T01:35:51.319Z,81.78
2023-02-22T01:38:18.628Z,81.87
2023-02-22T01:40:49.865Z,81.70
2023-02-22T01:43:31.108Z,81.81
2023-02-22T01:46:23.191Z,81.94
2023-02-22T01:49:10.913Z,82.14
2023-02-22T01:51:41.792Z,82.09
2023-02-22T01:54:16.421Z,82.09
2023-02-22T01:56:54.058Z,82.04
2023-02-22T01:59:22.691Z,82.20
2023-02-22T02:01:49.655Z,82.01
2023-02-22T02:04:21.028Z,82.00
2023-02-22T02:06:48.600Z,82.08
2023-02-22T02:09:35.479Z,81.97
2023-02-22T02:12:05.294Z,81.68
2023-02-22T02:14:33.074Z,81.50
2023-02-22T02:17:07.203Z,81.69
2023-02-22T02:19:33.898Z,81.87
2023-02-22T02:22:16.454Z,82.00
2023-02-22T02:24:55.319Z,81.69
2023-02-22T02:27:39.228Z,81.67
2023-02-22T02:30:47.449Z,81.93
2023-02-22T02:33:34.152Z,81.89
2023-02-22T02:36:56.875Z,82.06
2023-02-22T02:39:54.085Z,81.55
2023-02-22T02:42:47.841Z,81.84
2023-02-22T02:45:21.818Z,81.42
2023-02-22T02:47:58.701Z,81.56
2023-02-22T02:50:31.355Z,81.67
2023-02-22T02:53:02.561Z,81.82
2023-02-22T02:55:36.825Z,81.86
2023-02-22T02:58:06.458Z,81.48
2023-02-22T03:00:39.529Z,81.85
2023-02-22T03:03:18.413Z,81.68
2023-02-22T03:06:09.696Z,81.83
2023-02-22T03:09:02.552Z,81.60
2023-02-22T03:11:35.151Z,81.58
2023-02-22T03:14:27.118Z,81.48
2023-02-22T03:17:12.206Z,81.50
2023-02-22T03:19:47.841Z,81.44
2023-02-22T03:22:44.399Z,82.02
2023-02-22T03:25:17.460Z,81.99
2023-02-22T03:27:50.560Z,81.88
2023-02-22T03:30:25.885Z,81.58
2023-02-22T03:33:09.234Z,81.61
2023-02-22T03:35:42.612Z,81.57
2023-02-22T03:38:15.322Z,81.91
2023-02-22T03:40:45.687Z,81.99
2023-02-22T03:43:25.152Z,81.98
2023-02-22T03:45:53.173Z,81.63
2023-02-22T03:48:27.540Z,81.66
2023-02-22T03:50:54.398Z,81.69
2023-02-22T03:53:23.209Z,81.75
2023-02-22T03:55:53.483Z,81.84
2023-02-22T03:58:23.026Z,81.82
2023-02-22T04:00:53.178Z,81.51
2023-02-22T04:03:22.312Z,82.09
2023-02-22T04:05:49.805Z,81.47
2023-02-22T04:08:17.078Z,81.77
2023-02-22T04:10:44.106Z,82.03
2023-02-22T04:13:10.810Z,81.62
2023-02-22T04:15:37.778Z,81.79
2023-02-22T04:18:05.783Z,82.05
2023-02-22T04:20:34.838Z,81.65
2023-02-22T04:23:01.818Z,81.54
2023-02-22T04:25:28.659Z,81.73
2023-02-22T04:27:55.322Z,81.67
2023-02-22T04:30:22.354Z,81.56
2023-02-22T04:32:49.354Z,81.56
2023-02-22T04:35:16.034Z,81.66
2023-02-22T04:37:42.839Z,81.70
2023-02-22T04:40:11.672Z,81.69
2023-02-22T04:42:39.142Z,82.16
2023-02-22T04:45:08.151Z,82.10
2023-02-22T04:47:35.890Z,81.84
2023-02-22T04:50:03.424Z,81.87
2023-02-22T04:52:30.125Z,81.66
2023-02-22T04:54:57.041Z,82.25
2023-02-22T04:57:23.926Z,81.71
2023-02-22T04:59:51.345Z,81.82
2023-02-22T05:02:18.956Z,81.68
2023-02-22T05:04:45.760Z,81.82
2023-02-22T05:07:12.612Z,81.72
2023-02-22T05:09:39.441Z,82.25
2023-02-22T05:12:06.486Z,81.80
2023-02-22T05:14:33.460Z,82.14
2023-02-22T05:17:01.203Z,82.09
2023-02-22T05:19:28.098Z,81.94
2023-02-22T05:21:56.507Z,81.90
2023-02-22T05:24:23.394Z,81.62
2023-02-22T05:26:51.374Z,81.82
2023-02-22T05:29:18.110Z,82.14
2023-02-22T05:31:45.021Z,81.75
2023-02-22T05:34:12.189Z,82.07
2023-02-22T05:36:38.940Z,81.48
2023-02-22T05:39:05.679Z,81.85
2023-02-22T05:41:32.564Z,81.85
2023-02-22T05:43:59.232Z,82.06
2023-02-22T05:46:26.085Z,82.06
2023-02-22T05:48:52.789Z,81.95
2023-02-22T05:51:19.768Z,81.49
2023-02-22T05:53:46.670Z,81.83
2023-02-22T05:56:13.343Z,81.96
2023-02-22T05:58:39.996Z,81.51
2023-02-22T06:01:06.844Z,81.54
2023-02-22T06:03:33.652Z,81.27
2023-02-22T06:06:00.335Z,81.31
2023-02-22T06:08:27.360Z,81.20
2023-02-22T06:10:54.522Z,81.13
2023-02-22T06:13:21.227Z,81.42
2023-02-22T06:15:48.081Z,81.31
2023-02-22T06:18:14.896Z,81.16
2023-02-22T06:20:41.601Z,80.98
2023-02-22T06:23:08.494Z,80.92
2023-02-22T06:25:36.177Z,81.33
2023-02-22T06:28:03.208Z,80.76
2023-02-22T06:30:30.967Z,80.62
2023-02-22T06:32:58.070Z,80.78
2023-02-22T06:35:24.854Z,80.36
2023-02-22T06:37:51.595Z,80.55
2023-02-22T06:40:18.369Z,80.33
2023-02-22T06:42:48.355Z,80.43
2023-02-22T06:45:17.197Z,80.31
2023-02-22T06:47:43.924Z,80.33
2023-02-22T06:50:26.731Z,79.80
2023-02-22T06:52:53.629Z,79.76
2023-02-22T06:55:29.508Z,79.99
2023-02-22T06:57:56.694Z,79.87
2023-02-22T07:00:25.250Z,79.78
2023-02-22T07:02:53.000Z,79.47
2023-02-22T07:05:21.499Z,79.99
2023-02-22T07:07:50.110Z,79.79
2023-02-22T07:10:27.156Z,79.93
2023-02-22T07:12:54.323Z,79.35
2023-02-22T07:15:24.320Z,79.35
2023-02-22T07:17:52.244Z,79.56
2023-02-22T07:20:20.846Z,79.63
2023-02-22T07:22:49.051Z,79.26
2023-02-22T07:25:16.151Z,79.41
2023-02-22T07:27:43.487Z,79.41
2023-02-22T07:30:16.284Z,79.26
2023-02-22T07:32:44.418Z,79.23
2023-02-22T07:35:24.902Z,79.28
2023-02-22T07:37:54.024Z,79.19
2023-02-22T07:40:22.844Z,79.05
2023-02-22T07:43:14.575Z,78.74
2023-02-22T07:45:41.745Z,78.94
2023-02-22T07:48:08.795Z,79.02
2023-02-22T07:50:36.131Z,78.45
2023-02-22T07:53:06.055Z,78.54
2023-02-22T07:55:34.145Z,78.50
2023-02-22T07:58:04.332Z,77.97
2023-02-22T08:00:36.986Z,77.73
2023-02-22T08:03:07.561Z,78.26
2023-02-22T08:05:35.239Z,78.05
2023-02-22T08:08:02.994Z,77.72
2023-02-22T08:10:31.048Z,78.25
2023-02-22T08:12:58.324Z,78.38
2023-02-22T08:15:31.270Z,77.65
2023-02-22T08:18:00.201Z,77.77
2023-02-22T08:20:28.057Z,78.02
2023-02-22T08:22:55.377Z,77.97
2023-02-22T08:25:25.457Z,77.73
2023-02-22T08:27:52.797Z,77.44
2023-02-22T08:30:23.683Z,77.58
2023-02-22T08:32:51.632Z,77.46
2023-02-22T08:35:22.286Z,77.36
2023-02-22T08:37:50.539Z,77.46
2023-02-22T08:40:19.736Z,77.16
2023-02-22T08:42:46.416Z,77.18
2023-02-22T08:45:14.223Z,77.06
2023-02-22T08:47:41.462Z,77.42
2023-02-22T08:50:15.536Z,77.32
2023-02-22T08:52:42.403Z,76.74
2023-02-22T08:55:09.178Z,77.24
2023-02-22T08:57:35.930Z,76.84
2023-02-22T09:00:04.879Z,77.14
2023-02-22T09:02:31.752Z,76.68
2023-02-22T09:04:58.578Z,76.61
2023-02-22T09:07:25.343Z,77.13
2023-02-22T09:09:52.098Z,76.96
2023-02-22T09:12:19.123Z,76.79
2023-02-22T09:14:45.966Z,76.45
2023-02-22T09:17:13.082Z,76.20
2023-02-22T09:19:39.984Z,76.22
2023-02-22T09:22:06.793Z,76.18
2023-02-22T09:24:33.764Z,76.53
2023-02-22T09:27:01.238Z,76.39
2023-02-22T09:29:29.087Z,76.50
2023-02-22T09:31:56.834Z,76.14
2023-02-22T09:34:29.810Z,76.04
2023-02-22T09:36:57.922Z,75.82
2023-02-22T09:39:25.230Z,76.13
2023-02-22T09:42:17.340Z,75.82
2023-02-22T09:44:49.893Z,75.78
2023-02-22T09:47:40.371Z,75.51
2023-02-22T09:50:18.096Z,75.79
2023-02-22T09:52:57.888Z,75.19
2023-02-22T09:55:39.762Z,74.92
2023-02-22T09:58:22.385Z,75.13
2023-02-22T10:00:55.929Z,75.32
2023-02-22T10:03:30.007Z,75.25
2023-02-22T10:06:05.289Z,75.09
2023-02-22T10:08:34.623Z,75.03
2023-02-22T10:11:37.617Z,75.17
2023-02-22T10:14:36.577Z,74.69
2023-02-22T10:17:19.084Z,74.78
2023-02-22T10:20:20.183Z,75.25
2023-02-22T10:22:52.988Z,74.68
2023-02-22T10:25:23.968Z,75.14
2023-02-22T10:27:58.925Z,74.98
2023-02-22T10:30:34.591Z,74.74
2023-02-22T10:33:20.231Z,74.29
2023-02-22T10:35:47.857Z,74.48
2023-02-22T10:38:23.532Z,74.75
2023-02-22T10:40:58.064Z,74.60
2023-02-22T10:43:25.867Z,74.61
2023-02-22T10:46:01.394Z,74.12
2023-02-22T10:48:31.517Z,74.64
2023-02-22T10:51:04.181Z,74.33
2023-02-22T10:53:31.802Z,74.28
2023-02-22T10:56:26.871Z,74.64
2023-02-22T10:59:05.868Z,74.29
2023-02-22T11:01:32.710Z,74.57
2023-02-22T11:04:05.092Z,74.71
2023-02-22T11:06:34.575Z,74.28
2023-02-22T11:09:12.753Z,74.16
2023-02-22T11:11:42.792Z,74.38
2023-02-22T11:14:10.882Z,73.87
2023-02-22T11:16:43.608Z,73.81
2023-02-22T11:19:20.691Z,73.93
2023-02-22T11:21:51.599Z,73.59
2023-02-22T11:24:19.991Z,73.81
2023-02-22T11:26:56.522Z,73.47
2023-02-22T11:29:34.381Z,73.84
2023-02-22T11:32:15.282Z,73.63
2023-02-22T11:34:42.798Z,73.33
2023-02-22T11:37:26.068Z,73.36
2023-02-22T11:40:23.272Z,72.89
2023-02-22T11:43:08.460Z,72.97
2023-02-22T11:45:35.352Z,72.58
2023-02-22T11:48:04.963Z,73.17
2023-02-22T11:51:06.016Z,72.97
2023-02-22T11:53:53.874Z,72.95
2023-02-22T11:56:38.000Z,73.05
2023-02-22T11:59:34.663Z,73.09
2023-02-22T12:02:28.685Z,73.17
2023-02-22T12:05:13.646Z,73.06
2023-02-22T12:07:52.615Z,73.32
2023-02-22T12:10:31.237Z,73.16
2023-02-22T12:13:01.879Z,73.60
2023-02-22T12:15:59.655Z,73.24
2023-02-22T12:18:42.037Z,73.37
2023-02-22T12:21:16.781Z,73.36
2023-02-22T12:23:58.709Z,73.77
2023-02-22T12:26:31.056Z,73.35
2023-02-22T12:29:51.163Z,73.62
2023-02-22T12:32:30.001Z,73.30
2023-02-22T12:35:05.748Z,73.35
2023-02-22T12:37:41.534Z,72.84
2023-02-22T12:40:32.300Z,72.98
2023-02-22T12:43:08.515Z,72.87
2023-02-22T12:45:48.458Z,73.29
2023-02-22T12:48:23.953Z,73.30
2023-02-22T12:50:58.519Z,73.04
2023-02-22T12:53:53.276Z,72.61
2023-02-22T12:56:28.440Z,72.74
2023-02-22T12:59:08.120Z,72.67
2023-02-22T13:01:40.871Z,72.91
2023-02-22T13:04:20.140Z,72.75
2023-02-22T13:07:25.970Z,72.65
2023-02-22T13:10:07.844Z,72.70
2023-02-22T13:12:37.500Z,72.79
2023-02-22T13:15:23.607Z,72.36
2023-02-22T13:18:21.457Z,72.59
2023-02-22T13:20:51.093Z,72.25
2023-02-22T13:23:20.622Z,72.39
2023-02-22T13:25:59.473Z,72.19
2023-02-22T13:28:36.521Z,72.27
2023-02-22T13:31:03.284Z,71.87
2023-02-22T13:33:45.006Z,71.92
2023-02-22T13:36:26.176Z,71.50
2023-02-22T13:39:14.736Z,71.45
2023-02-22T13:42:02.272Z,71.44
2023-02-22T13:44:50.427Z,71.87
2023-02-22T13:47:55.704Z,71.73
2023-02-22T13:50:58.539Z,71.84
2023-02-22T13:53:29.311Z,71.72
2023-02-22T13:55:59.757Z,72.01
2023-02-22T13:58:27.014Z,71.81
2023-02-22T14:00:59.787Z,71.82
2023-02-22T14:03:40.605Z,72.00
2023-02-22T14:14:10.144Z,71.71
2023-02-22T14:16:37.719Z,71.35
2023-02-22T14:19:13.471Z,71.38
2023-02-22T14:22:06.869Z,71.31
2023-02-22T14:24:44.806Z,71.31
2023-02-22T14:27:12.271Z,71.79
2023-02-22T14:29:53.820Z,72.01
2023-02-22T14:32:21.397Z,71.38
2023-02-22T14:34:54.688Z,71.61
2023-02-22T14:37:26.204Z,71.52
2023-02-22T14:40:15.712Z,71.77
2023-02-22T14:42:45.053Z,71.54
2023-02-22T14:45:43.543Z,71.45
2023-02-22T14:48:26.597Z,72.08
2023-02-22T14:50:59.435Z,71.56
2023-02-22T14:53:33.499Z,71.81
2023-02-22T14:56:08.240Z,71.75
2023-02-22T14:58:41.876Z,71.78
2023-02-22T15:01:44.457Z,71.89
2023-02-22T15:04:33.366Z,72.26
2023-02-22T15:07:08.765Z,72.03
2023-02-22T15:09:37.562Z,72.63
2023-02-22T15:12:04.656Z,72.75
2023-02-22T15:14:38.197Z,72.47
2023-02-22T15:17:18.144Z,72.81
2023-02-22T15:19:48.761Z,72.82
2023-02-22T15:22:20.888Z,73.03
2023-02-22T15:25:02.877Z,73.12
2023-02-22T15:27:30.001Z,73.32
2023-02-22T15:30:05.097Z,72.86
2023-02-22T15:32:31.990Z,73.19
2023-02-22T15:35:18.452Z,73.17
2023-02-22T15:37:47.275Z,72.96
2023-02-22T15:40:21.127Z,73.58
2023-02-22T15:42:53.030Z,73.46
2023-02-22T15:45:26.238Z,73.14
2023-02-22T15:47:55.018Z,72.97
2023-02-22T15:50:28.135Z,73.31
2023-02-22T15:53:06.729Z,73.36
2023-02-22T15:55:47.458Z,73.38
2023-02-22T15:58:23.960Z,73.64
2023-02-22T16:01:02.915Z,73.77
2023-02-22T16:03:43.307Z,73.96
2023-02-22T16:06:12.938Z,73.78
2023-02-22T16:08:54.430Z,73.61
2023-02-22T16:11:46.247Z,73.66
2023-02-22T16:14:31.534Z,73.61
2023-02-22T16:17:41.184Z,73.76
2023-02-22T16:20:13.294Z,73.90
2023-02-22T16:22:41.193Z,74.16
2023-02-22T16:25:21.937Z,73.84
2023-02-22T16:27:58.299Z,74.04
2023-02-22T16:30:34.736Z,74.32
2023-02-22T16:34:23.556Z,74.34
2023-02-22T16:36:51.698Z,74.14
2023-02-22T16:39:27.358Z,74.63
2023-02-22T16:42:02.055Z,74.57
2023-02-22T16:44:29.157Z,74.55
2023-02-22T16:46:58.502Z,74.61
2023-02-22T16:49:25.682Z,74.65
2023-02-22T16:52:02.583Z,74.45
2023-02-22T16:54:36.578Z,74.76
2023-02-22T16:57:04.806Z,75.16
2023-02-22T16:59:39.761Z,74.91
2023-02-22T17:02:12.680Z,75.06
2023-02-22T17:04:40.270Z,74.74
2023-02-22T17:07:09.285Z,74.83
2023-02-22T17:09:36.156Z,75.17
2023-02-22T17:12:03.323Z,75.31
2023-02-22T17:14:34.124Z,75.28
2023-02-22T17:17:01.000Z,75.18
2023-02-22T17:19:28.017Z,75.22
2023-02-22T17:21:54.858Z,75.22
2023-02-22T17:24:24.951Z,75.44
2023-02-22T17:26:53.215Z,75.19
2023-02-22T17:29:20.639Z,75.17
2023-02-22T17:31:49.070Z,75.02
2023-02-22T17:34:16.430Z,75.81
2023-02-22T17:36:43.692Z,75.39
2023-02-22T17:39:11.232Z,75.51
2023-02-22T17:41:40.688Z,75.87
2023-02-22T17:44:08.101Z,75.70
2023-02-22T17:46:36.310Z,75.53
2023-02-22T17:49:03.451Z,75.65
2023-02-22T17:51:30.191Z,75.61
2023-02-22T17:53:57.120Z,75.78
2023-02-22T17:56:24.669Z,75.44
2023-02-22T17:58:54.818Z,75.49
2023-02-22T18:01:30.944Z,75.74
2023-02-22T18:04:02.332Z,75.82
2023-02-22T18:06:30.621Z,75.79
2023-02-22T18:08:59.353Z,75.74
2023-02-22T18:11:27.947Z,75.53
2023-02-22T18:13:56.602Z,75.74
2023-02-22T18:16:26.082Z,76.13
2023-02-22T18:18:54.355Z,75.88
2023-02-22T18:21:21.510Z,75.99
2023-02-22T18:23:48.309Z,76.15
2023-02-22T18:26:17.800Z,76.02
2023-02-22T18:28:44.689Z,75.92
2023-02-22T18:31:14.926Z,76.16
2023-02-22T18:33:43.317Z,75.96
2023-02-22T18:36:13.607Z,75.75
2023-02-22T18:38:45.021Z,76.04
2023-02-22T18:41:17.037Z,76.19
2023-02-22T18:43:46.477Z,75.82
2023-02-22T18:46:19.894Z,76.29
2023-02-22T18:48:48.369Z,76.34
2023-02-22T18:51:17.461Z,76.28
2023-02-22T18:53:47.550Z,75.95
2023-02-22T18:56:21.995Z,75.89
2023-02-22T18:58:53.532Z,76.51
2023-02-22T19:01:20.671Z,75.94
2023-02-22T19:03:47.689Z,76.49
2023-02-22T19:06:15.846Z,76.16
2023-02-22T19:08:45.873Z,76.52
2023-02-22T19:11:19.364Z,76.05
2023-02-22T19:13:58.718Z,76.74
2023-02-22T19:16:27.129Z,76.46
2023-02-22T19:18:57.569Z,76.67
2023-02-22T19:21:25.348Z,76.51
2023-02-22T19:23:52.200Z,76.52
2023-02-22T19:26:24.805Z,76.35
2023-02-22T19:28:54.294Z,76.50
2023-02-22T19:31:29.731Z,76.12
2023-02-22T19:34:04.154Z,76.31
2023-02-22T19:36:31.013Z,76.51
2023-02-22T19:39:02.074Z,76.30
2023-02-22T19:41:29.702Z,76.35
2023-02-22T19:43:56.521Z,76.53
2023-02-22T19:46:25.049Z,76.44
2023-02-22T19:48:53.806Z,76.98
2023-02-22T19:51:25.321Z,77.00
2023-02-22T19:53:53.039Z,77.04
2023-02-22T19:56:27.293Z,76.96
2023-02-22T19:58:56.336Z,76.58
2023-02-22T20:01:33.444Z,77.04
2023-02-22T20:04:06.452Z,76.66
2023-02-22T20:06:42.892Z,76.97
2023-02-22T20:09:13.405Z,76.98
2023-02-22T20:11:40.202Z,76.80
2023-02-22T20:14:07.178Z,76.98
2023-02-22T20:16:35.165Z,76.71
2023-02-22T20:19:02.016Z,76.73
2023-02-22T20:21:31.586Z,76.56
2023-02-22T20:24:04.553Z,76.67
2023-02-22T20:26:33.179Z,77.23
2023-02-22T20:29:00.419Z,76.98
2023-02-22T20:31:50.251Z,76.92
2023-02-22T20:34:17.014Z,76.65
2023-02-22T20:36:43.700Z,76.91
2023-02-22T20:39:15.873Z,76.74
2023-02-22T20:41:44.834Z,76.99
2023-02-22T20:44:13.903Z,77.32
2023-02-22T20:46:40.929Z,76.92
2023-02-22T20:49:09.010Z,77.06
2023-02-22T20:51:36.870Z,77.10
2023-02-22T20:54:03.993Z,76.75
2023-02-22T20:56:32.410Z,77.21
2023-02-22T20:59:01.853Z,77.35
2023-02-22T21:01:29.106Z,77.15
2023-02-22T21:04:02.755Z,77.24
2023-02-22T21:06:31.022Z,76.82
2023-02-22T21:08:59.941Z,76.80
2023-02-22T21:11:30.601Z,77.21
2023-02-22T21:13:58.938Z,76.88
2023-02-22T21:16:31.522Z,77.00
2023-02-22T21:19:00.925Z,77.10
2023-02-22T21:21:28.784Z,77.32
2023-02-22T21:24:01.912Z,76.96
2023-02-22T21:26:33.878Z,76.74
2023-02-22T21:29:04.951Z,76.80
2023-02-22T21:31:33.357Z,77.31
2023-02-22T21:34:00.710Z,77.03
2023-02-22T21:36:28.941Z,76.91
2023-02-22T21:39:00.498Z,77.27
2023-02-22T21:41:29.895Z,77.17
2023-02-22T21:43:58.858Z,76.82
2023-02-22T21:46:27.264Z,77.33
2023-02-22T21:48:54.098Z,77.40
2023-02-22T21:51:25.490Z,77.00
2023-02-22T21:53:54.703Z,77.22
2023-02-22T21:56:27.449Z,77.42
2023-02-22T21:59:05.397Z,76.94
2023-02-22T22:01:35.667Z,77.08
2023-02-22T22:04:04.219Z,77.19
2023-02-22T22:06:34.394Z,76.92
2023-02-22T22:09:01.563Z,77.30
2023-02-22T22:11:30.634Z,77.31
2023-02-22T22:13:58.934Z,77.36
2023-02-22T22:16:29.722Z,77.47
2023-02-22T22:18:57.546Z,77.53
2023-02-22T22:21:24.724Z,77.18
2023-02-22T22:23:56.180Z,77.44
2023-02-22T22:26:25.070Z,77.11
2023-02-22T22:28:55.930Z,77.22
2023-02-22T22:31:24.963Z,77.40
2023-02-22T22:33:52.267Z,77.46
2023-02-22T22:36:21.818Z,77.05
2023-02-22T22:38:49.640Z,77.22
2023-02-22T22:41:19.707Z,77.49
2023-02-22T22:43:47.277Z,77.12
2023-02-22T22:46:16.658Z,77.19
2023-02-22T22:48:47.000Z,77.25
2023-02-22T22:51:20.179Z,77.56
2023-02-22T22:53:48.980Z,77.31
2023-02-22T22:56:26.498Z,77.61
2023-02-22T22:58:58.006Z,77.44
2023-02-22T23:01:27.534Z,77.69
2023-02-22T23:04:00.528Z,77.59
2023-02-22T23:06:34.783Z,77.54
2023-02-22T23:09:14.151Z,77.50
2023-02-22T23:11:45.132Z,77.84
2023-02-22T23:14:24.289Z,77.95
2023-02-22T23:16:53.318Z,77.69
2023-02-22T23:19:20.021Z,77.93
2023-02-22T23:21:49.315Z,77.58
2023-02-22T23:24:19.310Z,77.71
2023-02-22T23:26:49.601Z,77.92
2023-02-22T23:29:18.653Z,78.12
2023-02-22T23:31:48.474Z,77.96
2023-02-22T23:34:21.206Z,78.16
2023-02-22T23:36:48.826Z,78.20
2023-02-22T23:39:20.615Z,78.07
2023-02-22T23:41:55.405Z,78.11
2023-02-22T23:44:22.707Z,77.99
2023-02-22T23:46:54.640Z,78.06
2023-02-22T23:49:23.592Z,77.82
2023-02-22T23:51:50.562Z,78.03
2023-02-22T23:54:19.825Z,77.94
2023-02-22T23:56:56.639Z,77.89
2023-02-22T23:59:27.125Z,77.84
